createdAt,value
2019-06-08T00:00:58.323Z,14.78
2019-06-08T00:03:47.937Z,14.74
2019-06-08T00:06:37.126Z,14.55
2019-06-08T00:09:25.912Z,14.75
2019-06-08T00:12:15.376Z,14.54
2019-06-08T00:15:05.506Z,14.59
2019-06-08T00:17:54.143Z,14.48
2019-06-08T00:20:43.740Z,14.58
2019-06-08T00:23:33.414Z,14.47
2019-06-08T00:26:22.398Z,14.54
2019-06-08T00:29:12.074Z,14.54
2019-06-08T00:32:01.229Z,14.46
2019-06-08T00:34:50.914Z,14.57
2019-06-08T00:37:40.641Z,14.63
2019-06-08T00:40:30.328Z,14.71
2019-06-08T00:43:19.686Z,14.71
2019-06-08T00:46:08.978Z,14.76
2019-06-08T00:48:57.854Z,14.82
2019-06-08T00:51:47.403Z,14.95
2019-06-08T00:54:37.282Z,14.95
2019-06-08T00:57:26.195Z,15.10
2019-06-08T01:00:15.348Z,15.17
2019-06-08T01:03:04.935Z,15.13
2019-06-08T01:05:54.376Z,15.14
2019-06-08T01:08:43.340Z,15.08
2019-06-08T01:11:31.980Z,15.04
2019-06-08T01:14:22.844Z,15.04
2019-06-08T01:17:36.861Z,15.07
2019-06-08T01:20:27.500Z,14.95
2019-06-08T01:23:16.345Z,14.96
2019-06-08T01:26:05.664Z,14.93
2019-06-08T01:28:55.278Z,14.87
2019-06-08T01:31:44.630Z,14.91
2019-06-08T01:34:33.445Z,14.84
2019-06-08T01:37:22.993Z,14.83
2019-06-08T01:40:12.429Z,14.85
2019-06-08T01:43:01.162Z,14.85
2019-06-08T01:45:50.469Z,14.88
2019-06-08T01:48:39.148Z,14.90
2019-06-08T01:51:28.656Z,14.92
2019-06-08T01:54:17.223Z,14.89
2019-06-08T01:57:06.761Z,14.78
2019-06-08T01:59:55.736Z,14.84
2019-06-08T02:02:45.179Z,14.87
2019-06-08T02:05:35.557Z,14.90
2019-06-08T02:08:26.464Z,14.86
2019-06-08T02:11:15.397Z,14.87
2019-06-08T02:14:05.200Z,14.72
2019-06-08T02:16:55.050Z,14.75
2019-06-08T02:19:43.938Z,14.77
2019-06-08T02:22:33.140Z,14.80
2019-06-08T02:25:27.287Z,14.86
2019-06-08T02:28:15.979Z,14.82
2019-06-08T02:31:04.713Z,14.72
2019-06-08T02:33:54.620Z,14.81
2019-06-08T02:36:44.242Z,14.88
2019-06-08T02:39:35.449Z,14.87
2019-06-08T02:42:24.099Z,14.85
2019-06-08T02:45:13.918Z,14.88
2019-06-08T02:48:03.067Z,14.83
2019-06-08T02:50:56.304Z,14.75
2019-06-08T02:53:46.185Z,14.70
2019-06-08T02:56:36.763Z,14.63
2019-06-08T02:59:29.274Z,14.59
2019-06-08T03:02:18.927Z,14.64
2019-06-08T03:05:08.526Z,14.52
2019-06-08T03:07:58.260Z,14.51
2019-06-08T03:10:51.091Z,14.48
2019-06-08T03:13:42.578Z,14.41
2019-06-08T03:16:31.293Z,14.56
2019-06-08T03:19:23.120Z,14.54
2019-06-08T03:22:11.656Z,14.50
2019-06-08T03:25:01.092Z,14.46
2019-06-08T03:27:50.521Z,14.51
2019-06-08T03:30:51.929Z,14.48
2019-06-08T03:33:30.453Z,14.52
2019-06-08T03:36:19.507Z,14.45
2019-06-08T03:39:09.025Z,14.42
2019-06-08T03:41:57.357Z,14.43
2019-06-08T03:44:46.699Z,14.38
2019-06-08T03:47:37.281Z,14.39
2019-06-08T03:50:27.973Z,14.38
2019-06-08T03:53:16.364Z,14.36
2019-06-08T03:56:05.598Z,14.44
2019-06-08T03:58:54.873Z,14.43
2019-06-08T04:01:45.977Z,14.49
2019-06-08T04:04:37.736Z,14.38
2019-06-08T04:07:26.165Z,14.41
2019-06-08T04:10:16.455Z,14.31
2019-06-08T04:13:05.597Z,14.28
2019-06-08T04:15:55.155Z,14.33
2019-06-08T04:18:46.698Z,14.22
2019-06-08T04:21:37.765Z,14.39
2019-06-08T04:24:27.607Z,14.38
2019-06-08T04:27:17.276Z,14.24
2019-06-08T04:30:06.755Z,14.26
2019-06-08T04:32:55.566Z,14.35
2019-06-08T04:35:47.038Z,14.23
2019-06-08T04:38:35.372Z,14.14
2019-06-08T04:41:24.506Z,14.20
2019-06-08T04:44:13.763Z,14.11
2019-06-08T04:47:02.598Z,14.25
2019-06-08T04:49:51.448Z,14.17
2019-06-08T04:52:41.342Z,14.18
2019-06-08T04:55:31.928Z,14.11
2019-06-08T04:58:21.341Z,14.06
2019-06-08T05:01:10.361Z,14.09
2019-06-08T05:04:00.086Z,14.15
2019-06-08T05:06:49.768Z,14.07
2019-06-08T05:09:39.184Z,14.08
2019-06-08T05:12:28.414Z,14.20
2019-06-08T05:15:16.861Z,14.17
2019-06-08T05:18:05.616Z,14.26
2019-06-08T05:20:55.169Z,14.36
2019-06-08T05:23:45.580Z,14.41
2019-06-08T05:26:35.214Z,14.51
2019-06-08T05:29:24.586Z,14.56
2019-06-08T05:32:13.232Z,14.70
2019-06-08T05:35:02.227Z,14.82
2019-06-08T05:37:51.960Z,15.01
2019-06-08T05:40:41.874Z,15.00
2019-06-08T05:43:30.261Z,14.96
2019-06-08T05:46:18.638Z,14.97
2019-06-08T05:49:08.173Z,14.94
2019-06-08T05:51:57.478Z,14.80
2019-06-08T05:54:47.931Z,14.63
2019-06-08T05:57:36.562Z,14.49
2019-06-08T06:00:26.072Z,14.41
2019-06-08T06:03:15.400Z,14.49
2019-06-08T06:06:04.009Z,14.46
2019-06-08T06:08:52.754Z,14.77
2019-06-08T06:11:42.858Z,14.93
2019-06-08T06:14:32.138Z,15.11
2019-06-08T06:17:21.587Z,14.97
2019-06-08T06:20:10.498Z,14.92
2019-06-08T06:23:00.008Z,14.83
2019-06-08T06:25:49.604Z,14.76
2019-06-08T06:28:38.618Z,14.79
2019-06-08T06:31:27.004Z,14.80
2019-06-08T06:34:16.968Z,14.73
2019-06-08T06:37:06.654Z,14.91
2019-06-08T06:39:56.580Z,14.85
2019-06-08T06:42:47.925Z,14.93
2019-06-08T06:45:37.569Z,15.04
2019-06-08T06:48:26.869Z,15.06
2019-06-08T06:51:25.854Z,15.42
2019-06-08T06:54:05.675Z,15.52
2019-06-08T06:56:54.802Z,16.10
2019-06-08T06:59:45.580Z,16.10
2019-06-08T07:02:36.538Z,16.34
2019-06-08T07:05:25.939Z,16.46
2019-06-08T07:08:15.599Z,16.28
2019-06-08T07:11:05.170Z,16.86
2019-06-08T07:13:55.219Z,16.93
2019-06-08T07:16:45.796Z,16.67
2019-06-08T07:19:35.191Z,16.69
2019-06-08T07:22:23.971Z,16.74
2019-06-08T07:25:14.438Z,16.75
2019-06-08T07:28:03.995Z,17.08
2019-06-08T07:30:52.980Z,17.30
2019-06-08T07:33:41.858Z,17.16
2019-06-08T07:36:31.584Z,17.14
2019-06-08T07:39:20.681Z,17.16
2019-06-08T07:42:09.316Z,17.68
2019-06-08T07:45:00.404Z,17.17
2019-06-08T07:47:49.992Z,17.33
2019-06-08T07:50:39.582Z,16.94
2019-06-08T07:53:28.711Z,16.66
2019-06-08T07:56:17.029Z,16.86
2019-06-08T07:59:06.523Z,16.65
2019-06-08T08:01:56.738Z,16.78
2019-06-08T08:04:45.194Z,17.13
2019-06-08T08:07:33.949Z,17.59
2019-06-08T08:10:23.719Z,17.89
2019-06-08T08:13:12.945Z,17.59
2019-06-08T08:16:02.327Z,17.87
2019-06-08T08:18:51.141Z,17.08
2019-06-08T08:21:41.565Z,16.86
2019-06-08T08:24:30.895Z,16.64
2019-06-08T08:27:19.512Z,16.87
2019-06-08T08:30:08.579Z,16.95
2019-06-08T08:33:01.680Z,16.87
2019-06-08T08:35:50.564Z,16.82
2019-06-08T08:38:41.058Z,17.23
2019-06-08T08:41:30.455Z,17.17
2019-06-08T08:44:19.229Z,17.36
2019-06-08T08:47:08.665Z,17.36
2019-06-08T08:49:59.099Z,17.25
2019-06-08T08:52:47.824Z,17.13
2019-06-08T08:55:37.973Z,17.60
2019-06-08T08:58:28.033Z,17.41
2019-06-08T09:01:20.475Z,17.73
2019-06-08T09:04:08.878Z,18.12
2019-06-08T09:07:06.525Z,18.39
2019-06-08T09:09:48.374Z,19.04
2019-06-08T09:12:37.638Z,18.96
2019-06-08T09:15:31.208Z,18.75
2019-06-08T09:18:18.771Z,18.97
2019-06-08T09:21:08.562Z,18.38
2019-06-08T09:24:00.688Z,18.20
2019-06-08T09:26:47.942Z,18.21
2019-06-08T09:29:38.866Z,17.94
2019-06-08T09:32:28.753Z,17.79
2019-06-08T09:35:18.803Z,17.52
2019-06-08T09:38:08.557Z,18.09
2019-06-08T09:41:01.228Z,18.37
2019-06-08T09:43:48.786Z,19.05
2019-06-08T09:46:38.540Z,19.21
2019-06-08T09:49:28.245Z,19.15
2019-06-08T09:52:18.626Z,18.47
2019-06-08T09:55:09.420Z,18.31
2019-06-08T09:58:01.926Z,19.09
2019-06-08T10:00:49.098Z,18.95
2019-06-08T10:03:39.421Z,18.95
2019-06-08T10:06:28.472Z,18.47
2019-06-08T10:09:18.596Z,18.28
2019-06-08T10:12:09.962Z,18.66
2019-06-08T10:15:00.616Z,18.48
2019-06-08T10:17:50.034Z,19.15
2019-06-08T10:20:40.297Z,19.18
2019-06-08T10:23:34.211Z,19.41
2019-06-08T10:26:20.197Z,19.01
2019-06-08T10:29:10.658Z,19.12
2019-06-08T10:31:59.433Z,19.32
2019-06-08T10:34:48.976Z,19.32
2019-06-08T10:37:38.493Z,19.29
2019-06-08T10:40:28.566Z,19.61
2019-06-08T10:43:20.010Z,19.66
2019-06-08T10:46:16.160Z,20.26
2019-06-08T10:48:59.738Z,20.47
2019-06-08T10:51:49.067Z,20.03
2019-06-08T10:54:38.211Z,19.61
2019-06-08T10:57:28.005Z,19.68
2019-06-08T11:00:24.042Z,19.66
2019-06-08T11:03:12.421Z,20.20
2019-06-08T11:06:02.786Z,19.53
2019-06-08T11:08:52.140Z,19.00
2019-06-08T11:11:40.571Z,19.25
2019-06-08T11:14:30.272Z,18.84
2019-06-08T11:17:19.381Z,19.10
2019-06-08T11:20:13.003Z,19.46
2019-06-08T11:23:00.754Z,19.75
2019-06-08T11:25:50.200Z,19.14
2019-06-08T11:28:39.706Z,19.10
2019-06-08T11:31:32.061Z,19.37
2019-06-08T11:34:21.773Z,19.48
2019-06-08T11:37:13.093Z,19.42
2019-06-08T11:40:02.168Z,19.51
2019-06-08T11:42:50.477Z,19.77
2019-06-08T11:45:39.885Z,19.83
2019-06-08T11:48:28.664Z,19.89
2019-06-08T11:51:18.643Z,19.66
2019-06-08T11:54:25.224Z,19.46
2019-06-08T11:56:57.741Z,19.68
2019-06-08T11:59:48.456Z,20.59
2019-06-08T12:02:38.296Z,20.48
2019-06-08T12:05:27.882Z,20.48
2019-06-08T12:08:17.581Z,21.20
2019-06-08T12:11:10.677Z,21.99
2019-06-08T12:13:58.596Z,22.29
2019-06-08T12:16:48.589Z,21.66
2019-06-08T12:19:37.785Z,21.59
2019-06-08T12:22:28.195Z,21.27
2019-06-08T12:25:17.623Z,21.01
2019-06-08T12:28:06.468Z,20.49
2019-06-08T12:30:55.680Z,20.15
2019-06-08T12:33:45.094Z,20.13
2019-06-08T12:36:33.704Z,20.18
2019-06-08T12:39:22.574Z,19.96
2019-06-08T12:42:16.868Z,20.03
2019-06-08T12:45:02.644Z,20.20
2019-06-08T12:47:52.018Z,20.13
2019-06-08T12:50:41.596Z,20.11
2019-06-08T12:53:30.767Z,20.85
2019-06-08T12:56:23.998Z,21.19
2019-06-08T12:59:13.821Z,21.79
2019-06-08T13:02:01.606Z,22.48
2019-06-08T13:04:50.985Z,22.42
2019-06-08T13:07:40.677Z,22.62
2019-06-08T13:10:29.311Z,21.79
2019-06-08T13:13:19.998Z,22.35
2019-06-08T13:16:10.447Z,22.72
2019-06-08T13:19:00.252Z,22.58
2019-06-08T13:21:48.875Z,22.94
2019-06-08T13:24:38.573Z,22.98
2019-06-08T13:27:28.191Z,22.93
2019-06-08T13:30:22.884Z,22.74
2019-06-08T13:33:08.248Z,22.88
2019-06-08T13:35:57.988Z,22.98
2019-06-08T13:38:47.999Z,21.79
2019-06-08T13:41:38.390Z,21.54
2019-06-08T13:44:27.973Z,21.05
2019-06-08T13:47:18.897Z,21.30
2019-06-08T13:50:11.011Z,21.29
2019-06-08T13:52:59.272Z,20.99
2019-06-08T13:55:55.854Z,21.14
2019-06-08T13:58:38.343Z,21.07
2019-06-08T14:01:30.799Z,21.78
2019-06-08T14:04:19.469Z,21.30
2019-06-08T14:07:08.112Z,22.02
2019-06-08T14:09:58.442Z,22.67
2019-06-08T14:12:48.850Z,21.97
2019-06-08T14:15:38.457Z,22.64
2019-06-08T14:18:33.661Z,22.93
2019-06-08T14:21:25.767Z,22.91
2019-06-08T14:24:09.076Z,22.45
2019-06-08T14:26:58.727Z,21.46
2019-06-08T14:29:48.517Z,22.18
2019-06-08T14:32:38.270Z,22.90
2019-06-08T14:35:27.431Z,23.02
2019-06-08T14:38:20.277Z,22.70
2019-06-08T14:41:07.696Z,22.50
2019-06-08T14:43:58.598Z,21.75
2019-06-08T14:46:48.075Z,22.31
2019-06-08T14:49:38.454Z,23.05
2019-06-08T14:52:29.778Z,22.86
2019-06-08T14:55:20.123Z,22.64
2019-06-08T14:58:09.459Z,22.87
2019-06-08T15:00:58.065Z,22.61
2019-06-08T15:03:48.211Z,22.34
2019-06-08T15:06:38.227Z,22.23
2019-06-08T15:09:29.884Z,22.22
2019-06-08T15:12:19.441Z,22.08
2019-06-08T15:15:11.388Z,21.60
2019-06-08T15:18:00.868Z,22.30
2019-06-08T15:20:49.711Z,23.04
2019-06-08T15:23:38.291Z,23.58
2019-06-08T15:26:36.467Z,23.32
2019-06-08T15:29:18.566Z,23.00
2019-06-08T15:32:08.156Z,23.15
2019-06-08T15:34:58.065Z,22.97
2019-06-08T15:37:48.087Z,22.30
2019-06-08T15:40:37.900Z,21.94
2019-06-08T15:43:29.185Z,22.11
2019-06-08T15:46:18.355Z,21.83
2019-06-08T15:49:08.481Z,22.15
2019-06-08T15:51:57.890Z,22.64
2019-06-08T15:54:48.431Z,22.16
2019-06-08T15:57:38.735Z,22.58
2019-06-08T16:00:28.371Z,22.99
2019-06-08T16:03:17.368Z,22.85
2019-06-08T16:06:06.776Z,23.15
2019-06-08T16:08:56.448Z,22.90
2019-06-08T16:11:46.153Z,22.85
2019-06-08T16:14:35.638Z,22.53
2019-06-08T16:17:25.122Z,22.60
2019-06-08T16:20:13.834Z,22.91
2019-06-08T16:23:02.894Z,22.97
2019-06-08T16:28:39.589Z,23.06
2019-06-08T16:31:31.069Z,23.43
2019-06-08T16:34:20.631Z,23.68
2019-06-08T16:37:10.292Z,23.85
2019-06-08T16:39:59.433Z,23.92
2019-06-08T16:42:48.991Z,24.82
2019-06-08T16:45:39.593Z,24.70
2019-06-08T16:48:28.123Z,25.20
2019-06-08T16:51:17.417Z,24.68
2019-06-08T16:54:06.671Z,25.22
2019-06-08T16:57:08.890Z,25.00
2019-06-08T16:59:46.498Z,24.65
2019-06-08T17:02:37.030Z,24.85
2019-06-08T17:05:25.812Z,25.19
2019-06-08T17:08:15.199Z,24.56
2019-06-08T17:11:04.693Z,24.96
2019-06-08T17:13:53.732Z,25.42
2019-06-08T17:16:42.600Z,24.85
2019-06-08T17:19:32.124Z,25.86
2019-06-08T17:22:21.741Z,24.74
2019-06-08T17:25:10.615Z,23.44
2019-06-08T17:27:58.963Z,22.31
2019-06-08T17:30:48.206Z,21.59
2019-06-08T17:33:37.710Z,21.25
2019-06-08T17:36:26.583Z,20.78
2019-06-08T17:39:15.542Z,20.60
2019-06-08T17:42:05.561Z,20.52
2019-06-08T17:44:54.717Z,20.38
2019-06-08T17:47:43.849Z,20.24
2019-06-08T17:50:32.752Z,20.18
2019-06-08T17:53:21.812Z,20.22
2019-06-08T17:56:10.983Z,19.95
2019-06-08T17:59:00.544Z,19.93
2019-06-08T18:01:49.237Z,19.80
2019-06-08T18:04:39.851Z,19.60
2019-06-08T18:07:28.630Z,19.54
2019-06-08T18:10:18.187Z,19.55
2019-06-08T18:13:07.391Z,19.36
2019-06-08T18:15:57.736Z,19.16
2019-06-08T18:18:48.072Z,19.06
2019-06-08T18:21:38.928Z,19.04
2019-06-08T18:24:28.025Z,18.99
2019-06-08T18:27:18.351Z,18.92
2019-06-08T18:30:08.952Z,18.75
2019-06-08T18:32:58.061Z,18.69
2019-06-08T18:35:49.346Z,18.51
2019-06-08T18:38:40.842Z,18.49
2019-06-08T18:41:28.121Z,18.26
2019-06-08T18:44:17.646Z,17.95
2019-06-08T18:47:07.435Z,17.66
2019-06-08T18:49:57.419Z,17.56
2019-06-08T18:52:49.016Z,17.31
2019-06-08T18:55:40.517Z,16.92
2019-06-08T18:58:27.942Z,16.80
2019-06-08T19:01:21.635Z,16.57
2019-06-08T19:04:07.639Z,16.38
2019-06-08T19:06:58.951Z,16.18
2019-06-08T19:09:48.099Z,16.05
2019-06-08T19:12:39.408Z,15.87
2019-06-08T19:15:32.807Z,15.65
2019-06-08T19:18:21.942Z,15.43
2019-06-08T19:21:11.297Z,15.27
2019-06-08T19:24:00.819Z,15.13
2019-06-08T19:26:49.282Z,15.06
2019-06-08T19:29:41.003Z,14.90
2019-06-08T19:32:29.070Z,14.66
2019-06-08T19:35:19.591Z,14.52
2019-06-08T19:38:09.061Z,14.40
2019-06-08T19:41:00.198Z,14.22
2019-06-08T19:43:53.962Z,14.09
2019-06-08T19:46:38.223Z,13.92
2019-06-08T19:49:28.291Z,13.83
2019-06-08T19:52:18.697Z,13.67
2019-06-08T19:55:08.673Z,13.56
2019-06-08T19:57:58.011Z,13.42
2019-06-08T20:00:52.344Z,13.28
2019-06-08T20:03:38.028Z,13.26
2019-06-08T20:06:27.774Z,13.15
2019-06-08T20:09:17.576Z,13.15
2019-06-08T20:12:08.134Z,13.08
2019-06-08T20:14:57.646Z,12.99
2019-06-08T20:17:48.902Z,12.86
2019-06-08T20:20:38.132Z,12.75
2019-06-08T20:23:27.582Z,12.64
2019-06-08T20:26:17.616Z,12.66
2019-06-08T20:29:13.613Z,12.52
2019-06-08T20:31:58.299Z,12.54
2019-06-08T20:34:49.348Z,12.44
2019-06-08T20:37:38.100Z,12.36
2019-06-08T20:40:27.957Z,12.27
2019-06-08T20:43:17.827Z,12.25
2019-06-08T20:46:08.110Z,12.21
2019-06-08T20:48:57.691Z,12.23
2019-06-08T20:51:49.211Z,12.28
2019-06-08T20:54:37.497Z,12.18
2019-06-08T20:57:26.678Z,12.26
2019-06-08T21:00:16.231Z,12.24
2019-06-08T21:03:07.981Z,12.21
2019-06-08T21:05:58.266Z,12.12
2019-06-08T21:08:48.950Z,12.13
2019-06-08T21:11:38.083Z,12.05
2019-06-08T21:14:27.364Z,11.98
2019-06-08T21:17:17.953Z,11.85
2019-06-08T21:20:08.548Z,11.84
2019-06-08T21:22:59.913Z,11.87
2019-06-08T21:25:50.752Z,11.89
2019-06-08T21:28:39.556Z,11.89
2019-06-08T21:31:28.545Z,11.94
2019-06-08T21:34:18.179Z,11.90
2019-06-08T21:37:09.152Z,11.84
2019-06-08T21:40:03.823Z,11.82
2019-06-08T21:42:52.166Z,11.80
2019-06-08T21:45:40.453Z,11.81
2019-06-08T21:48:29.566Z,11.72
2019-06-08T21:51:19.044Z,11.82
2019-06-08T21:54:07.741Z,11.93
2019-06-08T21:57:00.661Z,11.96
2019-06-08T21:59:59.366Z,11.95
2019-06-08T22:02:38.810Z,11.99
2019-06-08T22:05:27.648Z,12.16
2019-06-08T22:08:17.375Z,12.27
2019-06-08T22:11:08.332Z,12.18
2019-06-08T22:13:59.260Z,12.07
2019-06-08T22:16:47.734Z,12.03
2019-06-08T22:19:38.047Z,11.83
2019-06-08T22:22:27.692Z,11.77
2019-06-08T22:25:17.560Z,11.72
2019-06-08T22:28:07.330Z,11.63
2019-06-08T22:30:59.777Z,11.54
2019-06-08T22:33:48.334Z,11.62
2019-06-08T22:36:37.633Z,11.48
2019-06-08T22:39:27.977Z,11.42
2019-06-08T22:42:17.696Z,11.35
2019-06-08T22:45:08.237Z,11.34
2019-06-08T22:48:00.142Z,11.38
2019-06-08T22:50:47.786Z,11.49
2019-06-08T22:53:38.337Z,11.57
2019-06-08T22:56:28.023Z,11.54
2019-06-08T22:59:17.509Z,11.48
2019-06-08T23:02:09.086Z,11.35
2019-06-08T23:04:59.516Z,11.31
2019-06-08T23:07:48.848Z,11.24
2019-06-08T23:10:37.522Z,11.25
2019-06-08T23:13:28.076Z,11.24
2019-06-08T23:16:18.177Z,11.25
2019-06-08T23:19:08.051Z,11.33
2019-06-08T23:21:59.856Z,11.24
2019-06-08T23:24:47.849Z,11.18
2019-06-08T23:27:37.995Z,11.08
2019-06-08T23:30:28.097Z,11.09
2019-06-08T23:33:18.908Z,11.06
2019-06-08T23:36:39.423Z,11.13
2019-06-08T23:38:59.092Z,11.23
2019-06-08T23:41:48.412Z,11.35
2019-06-08T23:44:37.821Z,11.48
2019-06-08T23:47:27.487Z,11.45
2019-06-08T23:50:17.754Z,11.30
2019-06-08T23:53:09.158Z,11.23
2019-06-08T23:55:59.543Z,11.28
2019-06-08T23:58:48.240Z,11.20
